createdAt,value
2023-02-04T00:00:24.907Z,19.33
2023-02-04T00:02:51.574Z,12.85
2023-02-04T00:05:19.244Z,17.88
2023-02-04T00:07:46.183Z,18.08
2023-02-04T00:10:13.186Z,14.43
2023-02-04T00:12:39.727Z,12.80
2023-02-04T00:15:06.712Z,19.10
2023-02-04T00:17:35.543Z,15.27
2023-02-04T00:20:04.578Z,14.10
2023-02-04T00:22:33.526Z,21.80
2023-02-04T00:25:02.390Z,20.95
2023-02-04T00:27:28.983Z,19.17
2023-02-04T00:29:56.408Z,15.77
2023-02-04T00:32:27.775Z,16.05
2023-02-04T00:34:54.501Z,19.30
2023-02-04T00:37:21.235Z,20.52
2023-02-04T00:39:50.554Z,20.40
2023-02-04T00:42:17.369Z,13.82
2023-02-04T00:44:44.023Z,15.32
2023-02-04T00:47:10.559Z,17.15
2023-02-04T00:49:37.150Z,17.67
2023-02-04T00:52:03.849Z,23.08
2023-02-04T00:54:30.453Z,25.70
2023-02-04T00:56:57.016Z,19.85
2023-02-04T00:59:26.081Z,22.30
2023-02-04T01:01:57.393Z,15.80
2023-02-04T01:04:24.028Z,16.80
2023-02-04T01:06:50.737Z,16.83
2023-02-04T01:09:17.278Z,17.60
2023-02-04T01:11:43.810Z,16.10
2023-02-04T01:14:10.553Z,15.32
2023-02-04T01:16:37.169Z,18.50
2023-02-04T01:19:04.145Z,16.02
2023-02-04T01:21:31.448Z,28.33
2023-02-04T01:23:58.052Z,30.63
2023-02-04T01:26:27.227Z,26.55
2023-02-04T01:28:53.807Z,23.50
2023-02-04T01:31:20.494Z,19.73
2023-02-04T01:33:47.126Z,16.35
2023-02-04T01:36:13.711Z,22.70
2023-02-04T01:38:40.277Z,25.58
2023-02-04T01:41:07.306Z,23.17
2023-02-04T01:43:34.291Z,24.65
2023-02-04T01:46:02.613Z,18.73
2023-02-04T01:48:31.714Z,30.63
2023-02-04T01:51:15.065Z,20.17
2023-02-04T01:53:42.174Z,22.38
2023-02-04T01:56:20.525Z,17.08
2023-02-04T01:58:50.818Z,24.38
2023-02-04T02:01:41.903Z,23.42
2023-02-04T02:04:15.571Z,25.58
2023-02-04T02:06:58.701Z,20.92
2023-02-04T02:09:30.545Z,18.73
2023-02-04T02:12:01.872Z,19.10
2023-02-04T02:14:28.465Z,26.98
2023-02-04T02:16:55.047Z,19.52
2023-02-04T02:19:28.698Z,25.55
2023-02-04T02:22:16.947Z,25.00
2023-02-04T02:24:43.622Z,18.35
2023-02-04T02:27:11.947Z,23.00
2023-02-04T02:29:41.306Z,24.23
2023-02-04T02:32:09.580Z,19.52
2023-02-04T02:34:39.959Z,23.90
2023-02-04T02:37:09.093Z,19.15
2023-02-04T02:39:38.451Z,25.48
2023-02-04T02:42:05.165Z,23.65
2023-02-04T02:44:33.130Z,29.40
2023-02-04T02:47:00.394Z,18.80
2023-02-04T02:49:29.673Z,22.63
2023-02-04T02:51:56.245Z,25.02
2023-02-04T02:54:26.643Z,33.85
2023-02-04T02:56:54.364Z,26.63
2023-02-04T02:59:21.044Z,24.83
2023-02-04T03:01:55.732Z,18.55
2023-02-04T03:04:23.515Z,19.10
2023-02-04T03:06:51.876Z,26.58
2023-02-04T03:09:19.095Z,23.02
2023-02-04T03:11:45.715Z,20.00
2023-02-04T03:14:12.329Z,27.23
2023-02-04T03:16:40.520Z,28.17
2023-02-04T03:19:08.179Z,19.85
2023-02-04T03:21:35.906Z,22.58
2023-02-04T03:24:05.143Z,26.25
2023-02-04T03:26:31.838Z,22.85
2023-02-04T03:28:59.165Z,26.15
2023-02-04T03:31:25.851Z,22.05
2023-02-04T03:33:52.473Z,18.40
2023-02-04T03:36:19.991Z,21.48
2023-02-04T03:38:46.552Z,32.17
2023-02-04T03:41:13.085Z,26.35
2023-02-04T03:43:39.663Z,24.02
2023-02-04T03:46:06.338Z,31.38
2023-02-04T03:48:32.878Z,21.60
2023-02-04T03:50:59.597Z,30.90
2023-02-04T03:53:26.238Z,24.60
2023-02-04T03:55:52.832Z,20.63
2023-02-04T03:58:21.574Z,24.45
2023-02-04T04:00:50.874Z,28.05
2023-02-04T04:03:17.434Z,30.95
2023-02-04T04:05:44.006Z,24.55
2023-02-04T04:08:10.595Z,28.48
2023-02-04T04:10:37.212Z,21.25
2023-02-04T04:13:03.804Z,22.10
2023-02-04T04:15:31.850Z,25.70
2023-02-04T04:17:58.484Z,20.23
2023-02-04T04:20:25.634Z,25.40
2023-02-04T04:22:52.470Z,22.67
2023-02-04T04:25:19.260Z,26.67
2023-02-04T04:27:48.217Z,30.67
2023-02-04T04:30:14.929Z,22.00
2023-02-04T04:32:41.547Z,19.88
2023-02-04T04:35:08.614Z,26.55
2023-02-04T04:37:35.286Z,19.20
2023-02-04T04:40:08.983Z,21.95
2023-02-04T04:42:35.503Z,16.02
2023-02-04T04:45:02.112Z,21.65
2023-02-04T04:47:28.695Z,21.55
2023-02-04T04:49:55.250Z,25.98
2023-02-04T04:52:21.822Z,24.90
2023-02-04T04:54:48.464Z,23.23
2023-02-04T04:57:15.021Z,22.48
2023-02-04T04:59:41.558Z,28.58
2023-02-04T05:02:10.369Z,24.65
2023-02-04T05:04:37.000Z,21.17
2023-02-04T05:07:03.630Z,15.02
2023-02-04T05:09:34.785Z,16.88
2023-02-04T05:12:03.958Z,18.45
2023-02-04T05:14:35.487Z,20.88
2023-02-04T05:17:04.373Z,19.10
2023-02-04T05:19:33.554Z,24.45
2023-02-04T05:22:01.766Z,25.85
2023-02-04T05:24:28.690Z,23.40
2023-02-04T05:26:55.434Z,21.80
2023-02-04T05:29:24.553Z,17.33
2023-02-04T05:31:51.161Z,23.75
2023-02-04T05:34:17.911Z,23.08
2023-02-04T05:36:44.512Z,24.58
2023-02-04T05:39:11.151Z,29.77
2023-02-04T05:41:37.748Z,22.70
2023-02-04T05:44:04.418Z,20.52
2023-02-04T05:46:31.130Z,47.40
2023-02-04T05:48:57.683Z,29.73
2023-02-04T05:51:24.234Z,22.95
2023-02-04T05:53:50.822Z,50.22
2023-02-04T05:56:17.445Z,27.35
2023-02-04T05:58:43.976Z,22.98
2023-02-04T06:01:12.994Z,28.35
2023-02-04T06:03:39.619Z,39.08
2023-02-04T06:06:08.727Z,50.75
2023-02-04T06:08:35.378Z,24.58
2023-02-04T06:11:05.013Z,25.15
2023-02-04T06:13:31.588Z,42.78
2023-02-04T06:15:58.157Z,35.33
2023-02-04T06:18:24.816Z,28.02
2023-02-04T06:20:53.976Z,32.15
2023-02-04T06:23:20.574Z,26.17
2023-02-04T06:25:48.881Z,25.13
2023-02-04T06:28:15.499Z,22.05
2023-02-04T06:30:44.317Z,20.45
2023-02-04T06:33:11.015Z,30.35
2023-02-04T06:35:37.640Z,22.88
2023-02-04T06:38:04.253Z,27.35
2023-02-04T06:40:31.143Z,27.98
2023-02-04T06:43:00.184Z,26.55
2023-02-04T06:45:26.830Z,20.88
2023-02-04T06:47:53.397Z,19.38
2023-02-04T06:50:22.272Z,20.38
2023-02-04T06:52:48.920Z,17.35
2023-02-04T06:55:16.441Z,24.65
2023-02-04T06:57:43.090Z,18.98
2023-02-04T07:00:12.045Z,27.75
2023-02-04T07:02:39.904Z,20.13
2023-02-04T07:05:06.771Z,29.25
2023-02-04T07:07:35.716Z,24.90
2023-02-04T07:10:04.508Z,25.48
2023-02-04T07:12:31.109Z,28.27
2023-02-04T07:14:57.719Z,28.95
2023-02-04T07:17:24.284Z,23.38
2023-02-04T07:19:50.898Z,27.98
2023-02-04T07:22:17.467Z,19.77
2023-02-04T07:24:44.027Z,26.15
2023-02-04T07:27:10.612Z,27.20
2023-02-04T07:29:37.198Z,25.95
2023-02-04T07:32:03.840Z,27.45
2023-02-04T07:34:30.447Z,25.90
2023-02-04T07:36:57.100Z,24.70
2023-02-04T07:39:23.673Z,28.63
2023-02-04T07:41:50.315Z,27.17
2023-02-04T07:44:16.853Z,31.20
2023-02-04T07:46:43.498Z,26.95
2023-02-04T07:49:10.104Z,25.38
2023-02-04T07:51:36.806Z,29.95
2023-02-04T07:54:03.511Z,24.20
2023-02-04T07:56:30.106Z,32.67
2023-02-04T07:58:58.966Z,28.08
2023-02-04T08:01:25.566Z,30.60
2023-02-04T08:03:52.225Z,30.45
2023-02-04T08:06:19.083Z,32.85
2023-02-04T08:08:48.238Z,32.50
2023-02-04T08:11:14.776Z,34.47
2023-02-04T08:13:41.331Z,25.85
2023-02-04T08:16:08.031Z,28.55
2023-02-04T08:18:34.631Z,26.02
2023-02-04T08:21:01.664Z,29.55
2023-02-04T08:23:28.296Z,34.95
2023-02-04T08:25:54.832Z,35.20
2023-02-04T08:28:21.496Z,25.65
2023-02-04T08:30:48.368Z,30.77
2023-02-04T08:33:14.997Z,31.50
2023-02-04T08:35:41.536Z,30.73
2023-02-04T08:38:11.206Z,31.13
2023-02-04T08:40:37.886Z,33.60
2023-02-04T08:43:07.059Z,24.80
2023-02-04T08:45:33.689Z,34.15
2023-02-04T08:48:00.270Z,41.00
2023-02-04T08:50:28.767Z,32.70
2023-02-04T08:52:55.535Z,34.22
2023-02-04T08:55:22.132Z,31.65
2023-02-04T08:57:51.693Z,30.90
2023-02-04T09:00:18.899Z,30.73
2023-02-04T09:02:45.695Z,29.98
2023-02-04T09:05:12.391Z,27.95
2023-02-04T09:07:41.940Z,27.35
2023-02-04T09:10:08.777Z,33.63
2023-02-04T09:12:35.381Z,30.70
2023-02-04T09:15:05.423Z,36.42
2023-02-04T09:17:32.078Z,33.08
2023-02-04T09:19:58.852Z,27.52
2023-02-04T09:22:25.595Z,30.30
2023-02-04T09:24:52.194Z,39.58
2023-02-04T09:27:19.757Z,26.05
2023-02-04T09:29:46.342Z,28.95
2023-02-04T09:32:13.069Z,41.05
2023-02-04T09:34:40.047Z,28.70
2023-02-04T09:37:06.667Z,30.58
2023-02-04T09:39:33.232Z,35.67
2023-02-04T09:41:59.854Z,28.30
2023-02-04T09:44:31.322Z,34.92
2023-02-04T09:47:02.670Z,33.17
2023-02-04T09:49:32.639Z,36.92
2023-02-04T09:51:59.458Z,33.15
2023-02-04T09:54:26.180Z,25.60
2023-02-04T09:56:55.157Z,37.85
2023-02-04T09:59:23.656Z,28.20
2023-02-04T10:01:57.518Z,33.92
2023-02-04T10:04:24.409Z,30.17
2023-02-04T10:06:51.114Z,34.90
2023-02-04T10:09:18.360Z,31.77
2023-02-04T10:11:47.877Z,34.75
2023-02-04T10:14:19.606Z,37.78
2023-02-04T10:16:59.687Z,32.08
2023-02-04T10:19:28.648Z,32.72
2023-02-04T10:21:56.741Z,39.53
2023-02-04T10:24:30.338Z,40.47
2023-02-04T10:27:12.409Z,28.50
2023-02-04T10:29:40.424Z,26.88
2023-02-04T10:32:26.536Z,30.45
2023-02-04T10:34:59.018Z,30.88
2023-02-04T10:37:25.810Z,35.97
2023-02-04T10:39:52.667Z,32.70
2023-02-04T10:42:30.273Z,25.30
2023-02-04T10:44:57.225Z,27.65
2023-02-04T10:47:26.666Z,36.13
2023-02-04T10:50:06.250Z,32.55
2023-02-04T10:52:41.784Z,27.63
2023-02-04T10:55:14.295Z,25.27
2023-02-04T10:57:42.217Z,23.92
2023-02-04T11:00:19.766Z,31.38
2023-02-04T11:02:58.620Z,23.95
2023-02-04T11:05:30.642Z,28.73
2023-02-04T11:07:57.369Z,29.30
2023-02-04T11:10:28.657Z,21.50
2023-02-04T11:12:55.182Z,31.23
2023-02-04T11:15:42.231Z,29.55
2023-02-04T11:18:13.769Z,29.10
2023-02-04T11:20:41.173Z,27.83
2023-02-04T11:23:37.168Z,31.50
2023-02-04T11:26:09.962Z,24.65
2023-02-04T11:29:09.378Z,27.75
2023-02-04T11:31:52.016Z,21.92
2023-02-04T11:34:19.399Z,22.70
2023-02-04T11:37:01.548Z,28.58
2023-02-04T11:39:48.547Z,33.95
2023-02-04T11:42:19.811Z,29.10
2023-02-04T11:44:55.866Z,33.50
2023-02-04T11:47:25.041Z,27.60
2023-02-04T11:50:02.109Z,27.73
2023-02-04T11:52:28.753Z,19.58
2023-02-04T11:55:00.286Z,21.08
2023-02-04T11:57:27.848Z,19.63
2023-02-04T11:59:56.960Z,23.83
2023-02-04T12:02:27.908Z,25.85
2023-02-04T12:04:57.391Z,26.02
2023-02-04T12:07:28.473Z,23.27
2023-02-04T12:09:56.191Z,19.38
2023-02-04T12:12:28.686Z,22.15
2023-02-04T12:15:29.861Z,22.88
2023-02-04T12:18:12.892Z,25.48
2023-02-04T12:20:44.401Z,22.98
2023-02-04T12:23:10.973Z,31.02
2023-02-04T12:25:39.801Z,21.65
2023-02-04T12:28:08.962Z,23.30
2023-02-04T12:30:36.199Z,24.55
2023-02-04T12:33:02.818Z,19.90
2023-02-04T12:35:29.458Z,22.77
2023-02-04T12:37:56.404Z,18.88
2023-02-04T12:40:22.949Z,24.35
2023-02-04T12:42:49.510Z,23.92
2023-02-04T12:45:19.970Z,20.40
2023-02-04T12:47:46.788Z,26.02
2023-02-04T12:50:22.463Z,22.95
2023-02-04T12:53:07.244Z,24.90
2023-02-04T12:55:34.097Z,20.42
2023-02-04T12:58:00.881Z,21.95
2023-02-04T13:00:27.739Z,26.80
2023-02-04T13:02:59.097Z,27.55
2023-02-04T13:05:26.557Z,28.05
2023-02-04T13:07:53.404Z,16.83
2023-02-04T13:10:21.792Z,31.45
2023-02-04T13:12:48.612Z,21.67
2023-02-04T13:15:15.230Z,20.00
2023-02-04T13:17:42.167Z,27.10
2023-02-04T13:20:09.484Z,18.23
2023-02-04T13:22:36.051Z,21.50
2023-02-04T13:25:04.200Z,26.35
2023-02-04T13:27:33.347Z,26.23
2023-02-04T13:29:59.954Z,18.48
2023-02-04T13:32:26.806Z,22.10
2023-02-04T13:34:53.340Z,27.42
2023-02-04T13:37:22.113Z,18.30
2023-02-04T13:39:48.689Z,24.90
2023-02-04T13:42:15.308Z,23.23
2023-02-04T13:44:41.979Z,22.15
2023-02-04T13:47:08.545Z,24.65
2023-02-04T13:49:35.260Z,25.73
2023-02-04T13:52:01.889Z,21.05
2023-02-04T13:54:28.513Z,16.15
2023-02-04T13:56:57.573Z,20.38
2023-02-04T13:59:24.210Z,20.77
2023-02-04T14:01:50.819Z,15.05
2023-02-04T14:04:17.450Z,12.60
2023-02-04T14:06:44.048Z,19.35
2023-02-04T14:09:12.305Z,21.17
2023-02-04T14:11:39.353Z,16.83
2023-02-04T14:14:06.270Z,16.92
2023-02-04T14:16:32.912Z,9.90
2023-02-04T14:19:00.445Z,21.23
2023-02-04T14:21:27.215Z,15.77
2023-02-04T14:23:55.998Z,15.07
2023-02-04T14:26:24.795Z,12.77
2023-02-04T14:28:51.382Z,23.85
2023-02-04T14:31:18.808Z,14.75
2023-02-04T14:33:45.580Z,14.18
2023-02-04T14:36:12.388Z,16.73
2023-02-04T14:38:39.268Z,13.70
2023-02-04T14:41:05.881Z,12.68
2023-02-04T14:43:37.392Z,17.35
2023-02-04T14:46:05.546Z,13.15
2023-02-04T14:48:32.445Z,12.07
2023-02-04T14:50:59.044Z,14.32
2023-02-04T14:53:25.676Z,14.15
2023-02-04T14:55:52.256Z,18.00
2023-02-04T14:58:18.925Z,17.98
2023-02-04T15:00:45.498Z,18.00
2023-02-04T15:03:14.287Z,13.68
2023-02-04T15:05:43.449Z,12.38
2023-02-04T15:08:10.002Z,33.65
2023-02-04T15:10:39.125Z,16.67
2023-02-04T15:13:05.862Z,12.73
2023-02-04T15:15:32.539Z,18.80
2023-02-04T15:18:01.478Z,19.63
2023-02-04T15:20:30.621Z,11.25
2023-02-04T15:22:59.705Z,14.82
2023-02-04T15:25:27.248Z,15.10
2023-02-04T15:27:56.872Z,15.65
2023-02-04T15:30:26.694Z,15.70
2023-02-04T15:32:53.323Z,13.50
2023-02-04T15:35:21.932Z,16.45
2023-02-04T15:37:50.752Z,19.60
2023-02-04T15:40:17.714Z,15.95
2023-02-04T15:42:44.317Z,15.05
2023-02-04T15:45:10.913Z,18.25
2023-02-04T15:47:40.076Z,17.27
2023-02-04T15:50:09.029Z,19.13
2023-02-04T15:52:35.638Z,24.00
2023-02-04T15:55:06.997Z,21.20
2023-02-04T15:57:33.595Z,22.45
2023-02-04T16:00:00.195Z,25.58
2023-02-04T16:02:29.988Z,15.38
2023-02-04T16:04:56.745Z,29.88
2023-02-04T16:07:23.338Z,20.15
2023-02-04T16:09:49.958Z,23.85
2023-02-04T16:12:16.552Z,20.15
2023-02-04T16:14:43.147Z,20.17
2023-02-04T16:17:12.719Z,25.75
2023-02-04T16:19:39.291Z,27.52
2023-02-04T16:22:06.382Z,23.23
2023-02-04T16:24:33.617Z,17.30
2023-02-04T16:27:00.242Z,22.83
2023-02-04T16:29:26.956Z,21.92
2023-02-04T16:31:54.122Z,22.63
2023-02-04T16:34:20.801Z,20.80
2023-02-04T16:36:49.557Z,22.50
2023-02-04T16:39:18.857Z,20.52
2023-02-04T16:41:45.470Z,27.73
2023-02-04T16:44:12.324Z,29.17
2023-02-04T16:46:41.272Z,27.42
2023-02-04T16:49:08.003Z,27.77
2023-02-04T16:51:34.688Z,23.55
2023-02-04T16:54:01.315Z,32.42
2023-02-04T16:56:35.056Z,30.42
2023-02-04T16:59:04.936Z,25.98
2023-02-04T17:01:31.568Z,21.00
2023-02-04T17:03:58.443Z,22.77
2023-02-04T17:06:29.917Z,22.92
2023-02-04T17:08:56.862Z,22.02
2023-02-04T17:11:29.942Z,27.10
2023-02-04T17:14:00.853Z,23.92
2023-02-04T17:16:27.567Z,25.05
2023-02-04T17:18:57.448Z,27.77
2023-02-04T17:21:28.139Z,29.92
2023-02-04T17:23:56.131Z,21.35
2023-02-04T17:26:24.253Z,27.02
2023-02-04T17:28:53.192Z,27.33
2023-02-04T17:31:19.785Z,22.55
2023-02-04T17:33:47.336Z,23.40
2023-02-04T17:36:15.287Z,27.88
2023-02-04T17:38:41.972Z,33.35
2023-02-04T17:41:08.616Z,25.92
2023-02-04T17:43:37.240Z,24.73
2023-02-04T17:46:04.183Z,26.92
2023-02-04T17:48:31.961Z,26.58
2023-02-04T17:50:58.647Z,27.40
2023-02-04T17:53:27.440Z,23.67
2023-02-04T17:55:54.031Z,19.95
2023-02-04T17:58:27.084Z,25.58
2023-02-04T18:00:56.262Z,21.67
2023-02-04T18:03:26.586Z,22.95
2023-02-04T18:05:55.905Z,26.75
2023-02-04T18:08:27.158Z,20.70
2023-02-04T18:10:55.662Z,22.63
2023-02-04T18:13:23.470Z,24.27
2023-02-04T18:15:58.676Z,28.13
2023-02-04T18:18:35.939Z,28.85
2023-02-04T18:21:25.586Z,22.27
2023-02-04T18:24:08.765Z,25.83
2023-02-04T18:26:49.733Z,18.30
2023-02-04T18:29:23.806Z,155.90
2023-02-04T18:31:59.987Z,142.82
2023-02-04T18:34:41.545Z,73.75
2023-02-04T18:37:26.073Z,35.88
2023-02-04T18:40:02.482Z,27.45
2023-02-04T18:42:29.077Z,25.38
2023-02-04T18:44:56.894Z,27.00
2023-02-04T18:47:29.574Z,30.77
2023-02-04T18:49:56.378Z,25.13
2023-02-04T18:52:23.124Z,26.40
2023-02-04T18:54:54.327Z,26.95
2023-02-04T18:57:37.026Z,24.92
2023-02-04T19:00:09.583Z,28.88
2023-02-04T19:02:39.514Z,24.63
2023-02-04T19:05:42.614Z,23.98
2023-02-04T19:08:21.343Z,28.40
2023-02-04T19:10:49.235Z,30.42
2023-02-04T19:13:22.641Z,25.02
2023-02-04T19:16:22.550Z,25.75
2023-02-04T19:18:50.810Z,31.33
2023-02-04T19:21:22.606Z,25.20
2023-02-04T19:23:58.814Z,24.70
2023-02-04T19:26:47.270Z,28.15
2023-02-04T19:29:23.264Z,24.85
2023-02-04T19:31:52.634Z,24.52
2023-02-04T19:34:28.161Z,33.95
2023-02-04T19:36:55.551Z,22.50
2023-02-04T19:39:35.462Z,26.38
2023-02-04T19:42:17.146Z,28.13
2023-02-04T19:44:45.784Z,28.15
2023-02-04T19:47:35.347Z,25.05
2023-02-04T19:50:22.166Z,25.60
2023-02-04T19:52:55.222Z,30.05
2023-02-04T19:55:32.235Z,23.52
2023-02-04T19:58:20.579Z,23.90
2023-02-04T20:01:04.910Z,25.08
2023-02-04T20:03:38.888Z,25.58
2023-02-04T20:06:43.694Z,22.60
2023-02-04T20:09:19.706Z,26.15
2023-02-04T20:11:53.668Z,28.05
2023-02-04T20:14:22.048Z,26.30
2023-02-04T20:16:57.596Z,29.92
2023-02-04T20:19:35.899Z,28.27
2023-02-04T20:22:39.240Z,34.65
2023-02-04T20:25:35.578Z,31.00
2023-02-04T20:28:15.895Z,28.25
2023-02-04T20:30:45.475Z,26.75
2023-02-04T20:33:21.147Z,23.88
2023-02-04T20:36:10.624Z,25.33
2023-02-04T20:38:37.289Z,34.30
2023-02-04T20:41:18.749Z,28.23
2023-02-04T20:43:45.539Z,30.67
2023-02-04T20:46:23.055Z,30.17
2023-02-04T20:48:50.189Z,25.55
2023-02-04T20:51:23.586Z,26.98
2023-02-04T20:53:59.288Z,32.38
2023-02-04T20:56:33.623Z,26.65
2023-02-04T20:59:12.178Z,29.45
2023-02-04T21:01:45.970Z,36.50
2023-02-04T21:04:22.245Z,33.55
2023-02-04T21:06:55.556Z,33.55
2023-02-04T21:09:28.091Z,27.70
2023-02-04T21:12:00.971Z,31.45
2023-02-04T21:14:30.365Z,25.33
2023-02-04T21:16:57.026Z,30.48
2023-02-04T21:19:24.995Z,27.23
2023-02-04T21:21:52.296Z,28.58
2023-02-04T21:24:19.015Z,22.88
2023-02-04T21:26:45.627Z,28.55
2023-02-04T21:29:12.252Z,30.25
2023-02-04T21:31:41.415Z,30.17
2023-02-04T21:34:08.169Z,26.88
2023-02-04T21:36:34.801Z,27.08
2023-02-04T21:39:01.377Z,28.67
2023-02-04T21:41:28.303Z,32.33
2023-02-04T21:43:54.906Z,29.17
2023-02-04T21:46:21.581Z,32.90
2023-02-04T21:48:48.254Z,24.92
2023-02-04T21:51:17.480Z,36.10
2023-02-04T21:53:44.441Z,36.20
2023-02-04T21:56:11.505Z,28.60
2023-02-04T21:58:38.698Z,29.95
2023-02-04T22:01:07.859Z,25.70
2023-02-04T22:03:34.576Z,27.38
2023-02-04T22:06:05.915Z,33.28
2023-02-04T22:08:32.464Z,29.40
2023-02-04T22:10:59.087Z,30.95
2023-02-04T22:13:25.768Z,28.23
2023-02-04T22:15:52.492Z,30.02
2023-02-04T22:18:20.402Z,29.83
2023-02-04T22:20:47.007Z,30.92
2023-02-04T22:23:16.627Z,32.92
2023-02-04T22:25:43.267Z,34.65
2023-02-04T22:28:09.973Z,32.65
2023-02-04T22:30:37.589Z,30.08
2023-02-04T22:33:04.432Z,36.92
2023-02-04T22:35:34.986Z,31.15
2023-02-04T22:38:02.311Z,34.63
2023-02-04T22:40:28.937Z,32.65
2023-02-04T22:42:55.524Z,34.70
2023-02-04T22:45:22.100Z,35.97
2023-02-04T22:47:48.716Z,27.70
2023-02-04T22:50:15.469Z,36.28
2023-02-04T22:52:43.814Z,33.28
2023-02-04T22:55:13.135Z,33.58
2023-02-04T22:57:41.927Z,33.10
2023-02-04T23:00:09.322Z,36.22
2023-02-04T23:02:35.929Z,36.20
2023-02-04T23:05:03.192Z,29.38
2023-02-04T23:07:32.169Z,41.22
2023-02-04T23:09:58.743Z,35.33
2023-02-04T23:12:25.564Z,36.28
2023-02-04T23:14:52.161Z,32.70
2023-02-04T23:17:19.073Z,34.20
2023-02-04T23:19:46.086Z,32.80
2023-02-04T23:22:16.064Z,38.80
2023-02-04T23:24:45.171Z,37.10
2023-02-04T23:27:12.111Z,30.85
2023-02-04T23:29:42.336Z,36.67
2023-02-04T23:32:09.681Z,35.45
2023-02-04T23:34:36.716Z,37.88
2023-02-04T23:37:03.610Z,37.13
2023-02-04T23:39:30.721Z,43.00
2023-02-04T23:41:57.329Z,39.65
2023-02-04T23:44:24.103Z,42.08
2023-02-04T23:46:51.975Z,45.67
2023-02-04T23:49:18.578Z,41.13
2023-02-04T23:51:47.468Z,46.75
2023-02-04T23:54:14.268Z,43.20
2023-02-04T23:56:40.936Z,44.83
2023-02-04T23:59:08.302Z,46.80
